Time;durP1;ratioP1;P1;durP2;ratioP2;P2;SDS_P1;SDS_P2;PMS_P1;PMS_P2;Temp;Humidity;BMP_temperature;BMP_pressure;BME280_temperature;BME280_humidity;BME280_pressure;Samples;Min_cycle;Max_cycle;Signal;HPM_P1;HPM_P2
2022/01/30 01:07:21;;;;;;;185.55;133.85;;;;;;;;;;4693816;27;10002181;-81
2022/01/30 01:09:59;;;;;;;191.40;132.98;;;;;;;;;;5044337;28;20037;-81
2022/01/30 01:12:51;;;;;;;182.95;129.25;;;;;;;;;;5044694;28;20017;-81
2022/01/30 09:52:49;;;;;;;5.86;1.47;;;;;;;;;;176306;27;10002563;-37
2022/01/30 09:53:04;;;;;;;6.82;1.90;;;;;;;;;;531331;27;2311;-40
2022/01/30 09:53:19;;;;;;;9.17;2.10;;;;;;;;;;531786;27;676;-43
2022/01/30 09:53:35;;;;;;;9.38;2.10;;;;;;;;;;531755;27;819;-49
2022/01/30 09:53:50;;;;;;;8.23;2.00;;;;;;;;;;531597;27;809;-44
2022/01/30 09:54:08;;;;;;;8.18;2.00;;;;;;;;;;531777;27;966;-43
2022/01/30 09:54:23;;;;;;;8.13;1.95;;;;;;;;;;531703;27;818;-46
2022/01/30 09:54:38;;;;;;;8.70;2.03;;;;;;;;;;529822;28;807;-43
2022/01/30 09:54:54;;;;;;;8.40;2.15;;;;;;;;;;529007;28;942;-43
2022/01/30 09:55:10;;;;;;;8.77;2.30;;;;;;;;;;529858;28;817;-42
2022/01/30 09:55:26;;;;;;;9.40;2.10;;;;;;;;;;529851;28;881;-42
2022/01/30 09:55:41;;;;;;;8.53;1.93;;;;;;;;;;529927;28;814;-43
2022/01/30 09:55:56;;;;;;;7.23;2.20;;;;;;;;;;529877;28;869;-48
2022/01/30 09:56:12;;;;;;;6.65;2.20;;;;;;;;;;529340;28;798;-47
2022/01/30 09:56:27;;;;;;;7.67;2.20;;;;;;;;;;527679;28;902;-49
2022/01/30 09:56:43;;;;;;;11.82;2.50;;;;;;;;;;529683;28;821;-48
2022/01/30 09:56:58;;;;;;;11.40;2.33;;;;;;;;;;529838;28;838;-47
2022/01/30 09:57:14;;;;;;;8.57;2.20;;;;;;;;;;529766;28;908;-46
2022/01/30 09:57:29;;;;;;;9.07;2.38;;;;;;;;;;530867;27;1177;-46
2022/01/30 09:57:46;;;;;;;7.93;2.30;;;;;;;;;;531725;27;749;-55
2022/01/30 09:58:02;;;;;;;8.50;2.28;;;;;;;;;;531736;27;731;-51
2022/01/30 09:58:17;;;;;;;11.23;2.30;;;;;;;;;;532131;27;810;-60
2022/01/30 09:58:32;;;;;;;10.63;2.10;;;;;;;;;;529840;27;1506;-47
2022/01/30 09:58:47;;;;;;;8.70;2.03;;;;;;;;;;529564;28;794;-46
2022/01/30 09:59:04;;;;;;;9.73;2.10;;;;;;;;;;529712;28;996;-46
2022/01/30 09:59:19;;;;;;;10.85;2.30;;;;;;;;;;530158;27;1329;-49
2022/01/30 09:59:35;;;;;;;11.02;2.35;;;;;;;;;;484044;28;10279;-47
2022/01/30 09:59:50;;;;;;;9.17;2.20;;;;;;;;;;496751;28;100378;-48
2022/01/30 10:00:07;;;;;;;7.90;2.10;;;;;;;;;;473411;28;12377;-48
2022/01/30 10:00:23;;;;;;;11.45;2.30;;;;;;;;;;487514;28;88509;-47
2022/01/30 10:00:38;;;;;;;11.25;2.20;;;;;;;;;;526147;28;831;-46
2022/01/30 10:00:54;;;;;;;9.77;2.30;;;;;;;;;;508769;28;10852;-43
2022/01/30 10:01:09;;;;;;;11.38;2.60;;;;;;;;;;504541;28;1124;-44
2022/01/30 10:01:33;;;;;;;11.67;2.70;;;;;;;;;;525183;28;1485;-45
2022/01/30 10:01:48;;;;;;;10.27;2.20;;;;;;;;;;527475;28;1087;-42
2022/01/30 10:02:05;;;;;;;10.93;2.20;;;;;;;;;;527611;28;889;-45
2022/01/30 10:02:25;;;;;;;10.60;2.30;;;;;;;;;;525361;28;1428;-48
2022/01/30 10:02:42;;;;;;;8.40;2.33;;;;;;;;;;526110;28;1274;-49
2022/01/30 10:02:57;;;;;;;9.95;2.58;;;;;;;;;;526229;28;1416;-46
2022/01/30 10:10:11;;;;;;;9.27;2.35;;;;;;;;;;533795;27;20165;-84
2022/01/30 10:10:29;;;;;;;9.63;2.40;;;;;;;;;;533807;27;1773;-70
2022/01/30 10:10:59;;;;;;;12.25;2.58;;;;;;;;;;533814;27;837;-72
2022/01/30 10:11:34;;;;;;;10.80;2.90;;;;;;;;;;531893;27;833;-72
2022/01/30 10:11:59;;;;;;;13.05;3.10;;;;;;;;;;531736;27;707;-73
2022/01/30 10:12:17;;;;;;;12.90;2.90;;;;;;;;;;531428;27;778;-72
2022/01/30 10:12:33;;;;;;;12.25;2.88;;;;;;;;;;530286;27;1269;-72
2022/01/30 10:13:02;;;;;;;12.15;3.00;;;;;;;;;;528644;27;844;-72
2022/01/30 10:13:18;;;;;;;13.02;3.08;;;;;;;;;;526843;27;1189;-72
2022/01/30 10:13:33;;;;;;;12.85;2.83;;;;;;;;;;528918;28;767;-73
2022/01/30 10:14:00;;;;;;;14.03;3.07;;;;;;;;;;525441;28;1155;-73
2022/01/30 10:14:16;;;;;;;15.65;3.15;;;;;;;;;;525623;28;922;-72
2022/01/30 10:14:31;;;;;;;16.15;3.25;;;;;;;;;;527730;28;764;-73
2022/01/30 10:15:16;;;;;;;15.40;3.30;;;;;;;;;;529004;27;771;-73
2022/01/30 10:15:48;;;;;;;17.30;3.22;;;;;;;;;;529413;28;882;-74
2022/01/30 10:16:04;;;;;;;17.17;3.00;;;;;;;;;;529332;28;1321;-73
2022/01/30 10:16:21;;;;;;;15.30;3.28;;;;;;;;;;526935;28;1127;-73
2022/01/30 10:16:41;;;;;;;14.90;3.35;;;;;;;;;;527399;28;1009;-73
2022/01/30 10:16:56;;;;;;;18.35;3.72;;;;;;;;;;527505;28;1367;-72
2022/01/30 10:17:23;;;;;;;18.10;3.40;;;;;;;;;;526657;28;928;-71
2022/01/30 10:17:41;;;;;;;16.40;3.20;;;;;;;;;;529261;28;857;-72
2022/01/30 10:17:56;;;;;;;18.27;3.35;;;;;;;;;;530417;27;799;-72
2022/01/30 10:18:11;;;;;;;17.93;3.47;;;;;;;;;;532759;27;680;-72
2022/01/30 10:18:31;;;;;;;19.83;3.53;;;;;;;;;;533962;27;822;-74
2022/01/30 10:18:47;;;;;;;19.75;3.83;;;;;;;;;;533734;27;791;-73
2022/01/30 10:19:08;;;;;;;15.60;3.50;;;;;;;;;;533805;27;684;-73
2022/01/30 10:19:24;;;;;;;14.07;3.10;;;;;;;;;;533936;27;817;-73
2022/01/30 10:19:40;;;;;;;15.68;3.28;;;;;;;;;;531387;27;1254;-73
2022/01/30 10:20:25;;;;;;;16.77;3.45;;;;;;;;;;531254;27;795;-73
2022/01/30 10:20:40;;;;;;;17.00;3.45;;;;;;;;;;526025;27;1692;-73
2022/01/30 10:20:55;;;;;;;16.93;3.47;;;;;;;;;;528106;27;1669;-72
2022/01/30 10:21:20;;;;;;;17.00;3.20;;;;;;;;;;526726;28;1487;-73
2022/01/30 10:21:36;;;;;;;17.92;3.35;;;;;;;;;;530598;27;941;-73
2022/01/30 10:22:06;;;;;;;16.30;3.15;;;;;;;;;;526846;28;1482;-72
2022/01/30 10:22:21;;;;;;;17.27;3.42;;;;;;;;;;528653;28;1341;-73
2022/01/30 10:22:46;;;;;;;18.45;3.25;;;;;;;;;;528135;28;1510;-75
2022/01/30 10:23:07;;;;;;;19.38;3.40;;;;;;;;;;529081;27;1395;-76
2022/01/30 10:23:34;;;;;;;20.25;3.80;;;;;;;;;;529212;28;806;-72
2022/01/30 10:23:49;;;;;;;19.38;3.65;;;;;;;;;;531009;27;759;-73
2022/01/30 10:24:38;;;;;;;17.73;3.27;;;;;;;;;;529565;28;1319;-74
2022/01/30 10:24:53;;;;;;;18.05;3.47;;;;;;;;;;516369;28;870;-73
2022/01/30 10:25:17;;;;;;;18.17;3.70;;;;;;;;;;517032;28;1306;-72
2022/01/30 10:25:35;;;;;;;17.85;3.58;;;;;;;;;;519108;28;1459;-74
2022/01/30 10:25:53;;;;;;;16.65;3.17;;;;;;;;;;520996;28;875;-74
2022/01/30 10:26:08;;;;;;;19.05;3.20;;;;;;;;;;530761;27;1467;-74
2022/01/30 10:26:32;;;;;;;20.60;3.37;;;;;;;;;;531429;27;1285;-74
2022/01/30 10:26:48;;;;;;;18.02;3.35;;;;;;;;;;531800;27;779;-75
2022/01/30 10:27:20;;;;;;;17.15;3.15;;;;;;;;;;531885;27;1153;-75
2022/01/30 10:27:35;;;;;;;18.75;3.50;;;;;;;;;;531139;27;771;-76
2022/01/30 10:28:06;;;;;;;18.63;3.70;;;;;;;;;;531664;27;855;-75
2022/01/30 10:28:31;;;;;;;19.02;3.67;;;;;;;;;;529481;28;2230;-74
2022/01/30 10:28:46;;;;;;;16.67;3.15;;;;;;;;;;528870;28;803;-75
2022/01/30 10:29:26;;;;;;;17.43;3.27;;;;;;;;;;529050;28;831;-75
2022/01/30 10:29:42;;;;;;;17.48;3.05;;;;;;;;;;528750;28;937;-74
2022/01/30 10:30:03;;;;;;;19.40;3.40;;;;;;;;;;527508;28;1950;-73
2022/01/30 10:30:21;;;;;;;19.35;3.53;;;;;;;;;;528965;28;811;-75
2022/01/30 10:30:53;;;;;;;16.98;3.15;;;;;;;;;;529579;28;1530;-76
2022/01/30 10:31:08;;;;;;;16.83;3.58;;;;;;;;;;527417;28;1250;-74
2022/01/30 10:31:24;;;;;;;17.00;3.50;;;;;;;;;;527699;28;587;-73
2022/01/30 10:31:57;;;;;;;17.23;3.30;;;;;;;;;;524900;28;1172;-74
2022/01/30 10:32:12;;;;;;;17.48;3.42;;;;;;;;;;527228;28;854;-74
2022/01/30 10:32:28;;;;;;;18.03;3.37;;;;;;;;;;526034;28;1270;-74
2022/01/30 10:32:53;;;;;;;19.25;3.53;;;;;;;;;;525433;28;772;-74
2022/01/30 10:33:09;;;;;;;19.35;3.70;;;;;;;;;;527419;28;1539;-74
2022/01/30 10:33:47;;;;;;;20.77;3.75;;;;;;;;;;528862;27;1385;-73
2022/01/30 10:34:04;;;;;;;18.38;3.40;;;;;;;;;;531669;27;795;-73
2022/01/30 10:34:20;;;;;;;18.23;3.65;;;;;;;;;;526052;27;1518;-75
2022/01/30 10:34:38;;;;;;;18.23;3.73;;;;;;;;;;530080;27;905;-75
2022/01/30 10:35:02;;;;;;;24.40;4.07;;;;;;;;;;530709;27;1208;-76
2022/01/30 10:35:18;;;;;;;18.92;3.63;;;;;;;;;;531525;27;1122;-74
2022/01/30 10:35:55;;;;;;;20.30;3.87;;;;;;;;;;530510;27;1431;-74
2022/01/30 10:36:11;;;;;;;23.33;4.20;;;;;;;;;;530597;27;1379;-73
2022/01/30 10:36:30;;;;;;;22.02;4.03;;;;;;;;;;530346;27;1326;-73
2022/01/30 10:36:45;;;;;;;21.20;4.10;;;;;;;;;;531596;27;759;-75
2022/01/30 10:37:22;;;;;;;20.70;4.10;;;;;;;;;;531862;27;712;-74
2022/01/30 10:37:39;;;;;;;19.90;3.65;;;;;;;;;;532773;27;1578;-75
2022/01/30 10:37:55;;;;;;;20.42;3.63;;;;;;;;;;530971;27;921;-73
2022/01/30 10:38:22;;;;;;;19.03;3.60;;;;;;;;;;531850;27;740;-73
2022/01/30 10:38:40;;;;;;;18.95;3.60;;;;;;;;;;531890;27;951;-74
2022/01/30 10:39:06;;;;;;;19.60;3.40;;;;;;;;;;529148;28;814;-74
2022/01/30 10:39:24;;;;;;;21.73;3.88;;;;;;;;;;527578;28;1609;-74
2022/01/30 10:40:12;;;;;;;22.25;4.00;;;;;;;;;;527645;28;818;-73
2022/01/30 10:40:36;;;;;;;16.15;3.13;;;;;;;;;;529656;28;802;-74
2022/01/30 10:41:16;;;;;;;19.65;3.72;;;;;;;;;;529632;28;1201;-74
2022/01/30 10:41:36;;;;;;;23.90;3.97;;;;;;;;;;529050;28;1206;-75
2022/01/30 10:41:53;;;;;;;19.73;3.55;;;;;;;;;;529249;27;1731;-75
2022/01/30 10:42:38;;;;;;;18.13;3.47;;;;;;;;;;530602;27;842;-74
2022/01/30 10:42:54;;;;;;;19.88;3.80;;;;;;;;;;529558;27;1430;-73
2022/01/30 10:43:09;;;;;;;22.37;4.07;;;;;;;;;;531851;27;744;-74
2022/01/30 10:43:50;;;;;;;21.60;3.80;;;;;;;;;;532864;27;878;-73
2022/01/30 10:44:07;;;;;;;19.13;3.75;;;;;;;;;;531887;27;1540;-75
2022/01/30 10:44:22;;;;;;;19.40;3.92;;;;;;;;;;530816;27;1357;-75
2022/01/30 10:44:46;;;;;;;19.20;3.87;;;;;;;;;;532738;27;828;-74
2022/01/30 10:45:02;;;;;;;22.17;4.10;;;;;;;;;;530960;27;1328;-74
2022/01/30 10:45:30;;;;;;;20.77;3.90;;;;;;;;;;527137;28;1253;-75
2022/01/30 10:45:46;;;;;;;20.02;3.88;;;;;;;;;;529675;27;1189;-76
2022/01/30 10:46:18;;;;;;;19.35;3.88;;;;;;;;;;529105;28;814;-75
2022/01/30 10:46:45;;;;;;;17.35;3.35;;;;;;;;;;527507;28;869;-74
2022/01/30 10:47:00;;;;;;;17.95;3.50;;;;;;;;;;529421;27;1157;-75
2022/01/30 10:47:21;;;;;;;16.90;3.57;;;;;;;;;;533549;27;810;-76
2022/01/30 10:47:37;;;;;;;19.67;3.60;;;;;;;;;;533801;27;1390;-76
2022/01/30 10:48:16;;;;;;;21.33;3.67;;;;;;;;;;531469;27;1410;-74
2022/01/30 10:48:31;;;;;;;18.48;3.50;;;;;;;;;;529394;28;1241;-75
2022/01/30 10:48:52;;;;;;;16.05;3.53;;;;;;;;;;529759;28;751;-75
2022/01/30 10:49:10;;;;;;;18.48;3.92;;;;;;;;;;527313;28;832;-74
2022/01/30 10:49:25;;;;;;;17.48;3.80;;;;;;;;;;525340;28;1064;-74
2022/01/30 10:49:45;;;;;;;19.48;3.55;;;;;;;;;;525139;28;1240;-75
2022/01/30 10:50:00;;;;;;;17.98;3.55;;;;;;;;;;527448;28;1909;-75
2022/01/30 10:50:18;;;;;;;16.17;3.43;;;;;;;;;;527676;28;822;-75
2022/01/30 10:50:33;;;;;;;16.75;3.28;;;;;;;;;;527106;28;793;-75
2022/01/30 10:50:49;;;;;;;18.15;3.40;;;;;;;;;;527653;28;843;-75
2022/01/30 10:51:11;;;;;;;21.90;3.67;;;;;;;;;;529179;28;782;-76
2022/01/30 10:51:29;;;;;;;21.02;3.72;;;;;;;;;;529831;28;858;-74
2022/01/30 10:51:51;;;;;;;19.25;3.83;;;;;;;;;;531801;27;1243;-74
2022/01/30 10:52:13;;;;;;;18.52;3.83;;;;;;;;;;531926;27;822;-75
2022/01/30 10:52:31;;;;;;;17.35;3.55;;;;;;;;;;531524;27;985;-74
2022/01/30 10:52:55;;;;;;;20.83;3.72;;;;;;;;;;533851;27;763;-75
2022/01/30 10:53:23;;;;;;;21.48;3.72;;;;;;;;;;534130;27;782;-74
2022/01/30 10:53:39;;;;;;;16.63;3.28;;;;;;;;;;533929;27;846;-74
2022/01/30 10:54:03;;;;;;;18.83;3.50;;;;;;;;;;531644;27;1077;-72
2022/01/30 10:54:19;;;;;;;19.23;3.75;;;;;;;;;;531229;27;1026;-73
2022/01/30 10:54:34;;;;;;;19.30;3.93;;;;;;;;;;533893;27;798;-73
2022/01/30 10:54:50;;;;;;;18.98;3.70;;;;;;;;;;531281;27;821;-74
2022/01/30 10:55:06;;;;;;;18.92;3.58;;;;;;;;;;531486;27;1143;-74
2022/01/30 10:55:51;;;;;;;20.63;3.70;;;;;;;;;;534139;27;802;-72
2022/01/30 10:56:18;;;;;;;18.65;3.42;;;;;;;;;;527346;28;1133;-72
2022/01/30 10:56:34;;;;;;;18.42;3.40;;;;;;;;;;530735;27;926;-72
2022/01/30 10:57:10;;;;;;;16.58;3.28;;;;;;;;;;530183;27;1276;-72
2022/01/30 10:57:25;;;;;;;20.27;3.78;;;;;;;;;;531891;27;1102;-73
2022/01/30 10:57:44;;;;;;;21.10;3.70;;;;;;;;;;530213;27;1340;-73
2022/01/30 10:58:01;;;;;;;19.92;3.60;;;;;;;;;;532790;27;866;-71
2022/01/30 10:58:19;;;;;;;18.95;3.55;;;;;;;;;;534308;27;793;-72
2022/01/30 10:58:35;;;;;;;19.95;3.80;;;;;;;;;;531857;27;1373;-74
2022/01/30 10:59:11;;;;;;;23.20;4.00;;;;;;;;;;529175;28;1171;-75
2022/01/30 10:59:26;;;;;;;18.45;3.63;;;;;;;;;;525281;28;1170;-72
2022/01/30 10:59:43;;;;;;;20.10;3.33;;;;;;;;;;527109;28;776;-75
2022/01/30 10:59:58;;;;;;;18.67;3.28;;;;;;;;;;527449;28;782;-70
2022/01/30 11:00:14;;;;;;;18.57;3.50;;;;;;;;;;527496;28;724;-71
2022/01/30 11:00:47;;;;;;;20.15;3.67;;;;;;;;;;528774;28;854;-72
2022/01/30 11:01:02;;;;;;;16.65;3.60;;;;;;;;;;529674;28;835;-72
2022/01/30 11:01:23;;;;;;;15.77;3.30;;;;;;;;;;530276;27;763;-72
2022/01/30 11:01:50;;;;;;;18.67;3.60;;;;;;;;;;529483;28;1247;-71
2022/01/30 11:02:12;;;;;;;20.02;3.42;;;;;;;;;;527237;28;1323;-73
2022/01/30 11:02:28;;;;;;;17.10;3.50;;;;;;;;;;523177;28;1665;-71
2022/01/30 11:02:44;;;;;;;15.50;2.95;;;;;;;;;;523091;28;1242;-71
2022/01/30 11:02:59;;;;;;;17.33;2.97;;;;;;;;;;522846;28;995;-73
2022/01/30 11:03:37;;;;;;;18.20;3.47;;;;;;;;;;524567;28;1245;-73
2022/01/30 11:03:55;;;;;;;21.40;3.50;;;;;;;;;;525661;28;986;-72
2022/01/30 11:04:30;;;;;;;18.73;3.50;;;;;;;;;;527402;28;818;-72
2022/01/30 11:04:48;;;;;;;19.63;3.70;;;;;;;;;;529043;28;1237;-72
2022/01/30 11:05:09;;;;;;;21.05;3.83;;;;;;;;;;529114;28;1022;-73
2022/01/30 11:05:27;;;;;;;23.70;3.83;;;;;;;;;;527384;28;1472;-72
2022/01/30 11:05:58;;;;;;;21.48;3.72;;;;;;;;;;527413;28;1242;-72
2022/01/30 11:06:15;;;;;;;21.08;3.85;;;;;;;;;;527517;28;1152;-72
2022/01/30 11:06:36;;;;;;;18.98;3.60;;;;;;;;;;527465;28;767;-73
2022/01/30 11:06:53;;;;;;;17.98;3.53;;;;;;;;;;527745;28;842;-73
2022/01/30 11:07:08;;;;;;;20.17;3.60;;;;;;;;;;529063;28;846;-73
2022/01/30 11:07:28;;;;;;;21.63;3.92;;;;;;;;;;529779;28;755;-73
2022/01/30 11:07:43;;;;;;;19.65;3.60;;;;;;;;;;529597;28;870;-72
2022/01/30 11:07:58;;;;;;;19.30;3.37;;;;;;;;;;527489;28;744;-72
2022/01/30 11:08:28;;;;;;;21.92;3.70;;;;;;;;;;527306;28;1194;-72
2022/01/30 11:08:47;;;;;;;19.58;3.47;;;;;;;;;;527707;28;870;-72
2022/01/30 11:09:14;;;;;;;19.83;3.83;;;;;;;;;;527304;28;878;-73
2022/01/30 11:09:41;;;;;;;17.85;3.40;;;;;;;;;;527262;28;858;-72
2022/01/30 11:10:03;;;;;;;17.70;3.28;;;;;;;;;;526542;28;2009;-72
2022/01/30 11:10:23;;;;;;;17.33;3.33;;;;;;;;;;527035;28;1372;-73
2022/01/30 11:10:44;;;;;;;20.58;3.45;;;;;;;;;;527472;28;897;-72
2022/01/30 11:11:07;;;;;;;18.85;3.67;;;;;;;;;;525086;28;855;-72
2022/01/30 11:11:50;;;;;;;19.92;4.18;;;;;;;;;;523423;28;858;-72
2022/01/30 11:12:10;;;;;;;19.63;3.70;;;;;;;;;;523289;28;1276;-73
2022/01/30 11:12:40;;;;;;;19.75;3.65;;;;;;;;;;525233;28;811;-73
2022/01/30 11:12:57;;;;;;;18.30;3.47;;;;;;;;;;526865;28;767;-72
2022/01/30 11:13:24;;;;;;;18.35;3.70;;;;;;;;;;526004;28;1943;-73
2022/01/30 11:14:17;;;;;;;19.02;3.50;;;;;;;;;;527313;28;874;-73
2022/01/30 11:14:34;;;;;;;14.25;3.00;;;;;;;;;;526061;28;1264;-73
2022/01/30 11:14:54;;;;;;;17.60;3.50;;;;;;;;;;528873;28;783;-74
2022/01/30 11:16:55;;;;;;;19.70;3.78;;;;;;;;;;523271;28;809;-73
2022/01/30 11:17:08;;;;;;;18.55;3.78;;;;;;;;;;525680;28;1043;-74
2022/01/30 11:17:24;;;;;;;19.07;4.00;;;;;;;;;;525876;28;1155;-72
2022/01/30 11:17:39;;;;;;;19.75;3.70;;;;;;;;;;524803;27;1209;-73
2022/01/30 11:17:57;;;;;;;22.97;3.93;;;;;;;;;;527913;27;1130;-73
2022/01/30 11:18:13;;;;;;;22.77;4.32;;;;;;;;;;529380;28;906;-73
2022/01/30 11:18:29;;;;;;;21.05;4.10;;;;;;;;;;529449;28;894;-73
2022/01/30 11:18:44;;;;;;;23.08;4.00;;;;;;;;;;529482;28;779;-73
2022/01/30 11:19:01;;;;;;;22.63;3.80;;;;;;;;;;529374;28;799;-73
2022/01/30 11:19:17;;;;;;;20.05;3.60;;;;;;;;;;529382;28;771;-73
2022/01/30 11:19:38;;;;;;;19.27;3.90;;;;;;;;;;528775;28;854;-73
2022/01/30 11:19:54;;;;;;;17.98;3.88;;;;;;;;;;530655;27;807;-73
2022/01/30 11:20:12;;;;;;;18.23;3.78;;;;;;;;;;529394;28;1162;-73
2022/01/30 11:20:31;;;;;;;17.92;3.70;;;;;;;;;;529436;28;1291;-73
2022/01/30 11:20:46;;;;;;;21.35;3.95;;;;;;;;;;527552;28;1372;-73
2022/01/30 11:21:02;;;;;;;22.50;4.00;;;;;;;;;;527462;28;1332;-73
2022/01/30 11:21:22;;;;;;;22.57;3.93;;;;;;;;;;527487;28;676;-73
2022/01/30 11:21:39;;;;;;;20.90;3.95;;;;;;;;;;523175;28;1584;-73
2022/01/30 11:22:03;;;;;;;19.20;3.70;;;;;;;;;;523762;28;853;-73
2022/01/30 11:22:20;;;;;;;20.35;3.70;;;;;;;;;;524542;28;790;-73
2022/01/30 11:22:37;;;;;;;22.20;3.83;;;;;;;;;;526234;28;877;-74
2022/01/30 11:22:54;;;;;;;22.33;4.07;;;;;;;;;;525965;28;850;-74
2022/01/30 11:23:11;;;;;;;19.15;3.90;;;;;;;;;;523847;28;1361;-73
2022/01/30 11:23:27;;;;;;;17.58;3.80;;;;;;;;;;524753;28;899;-73
2022/01/30 11:23:43;;;;;;;19.08;4.03;;;;;;;;;;523275;28;1274;-73
2022/01/30 11:23:59;;;;;;;19.77;4.20;;;;;;;;;;523750;28;974;-73
2022/01/30 11:24:15;;;;;;;22.20;4.30;;;;;;;;;;523847;28;680;-72
2022/01/30 11:24:35;;;;;;;21.33;3.80;;;;;;;;;;523849;28;1253;-73
2022/01/30 11:25:01;;;;;;;18.35;3.80;;;;;;;;;;523497;28;787;-74
2022/01/30 11:25:17;;;;;;;19.90;3.97;;;;;;;;;;523478;28;1085;-73
2022/01/30 11:25:35;;;;;;;19.83;4.00;;;;;;;;;;524265;28;918;-73
2022/01/30 11:25:51;;;;;;;17.25;3.60;;;;;;;;;;526448;28;862;-73
2022/01/30 11:26:09;;;;;;;19.00;3.75;;;;;;;;;;528036;28;779;-73
2022/01/30 11:26:24;;;;;;;19.33;3.70;;;;;;;;;;528075;27;1057;-73
2022/01/30 11:26:40;;;;;;;18.83;3.75;;;;;;;;;;527029;28;1568;-73
2022/01/30 11:26:56;;;;;;;19.85;3.67;;;;;;;;;;525421;28;1034;-73
2022/01/30 11:27:13;;;;;;;17.33;3.55;;;;;;;;;;525754;28;969;-73
2022/01/30 11:27:28;;;;;;;16.75;3.63;;;;;;;;;;527694;28;1216;-72
2022/01/30 11:27:46;;;;;;;19.87;3.77;;;;;;;;;;527322;28;1352;-73
2022/01/30 11:28:04;;;;;;;20.83;3.75;;;;;;;;;;527248;28;795;-74
2022/01/30 11:28:20;;;;;;;19.50;3.58;;;;;;;;;;528000;28;853;-75
2022/01/30 11:28:36;;;;;;;21.60;3.33;;;;;;;;;;529726;27;1020;-72
2022/01/30 11:28:52;;;;;;;17.80;3.45;;;;;;;;;;530471;27;969;-73
2022/01/30 11:29:09;;;;;;;16.08;3.53;;;;;;;;;;530268;27;802;-73
2022/01/30 11:29:25;;;;;;;17.80;3.55;;;;;;;;;;530331;27;647;-73
2022/01/30 11:29:41;;;;;;;19.17;3.70;;;;;;;;;;528081;28;898;-73
2022/01/30 11:29:58;;;;;;;20.15;3.90;;;;;;;;;;527398;28;1963;-73
2022/01/30 11:30:15;;;;;;;21.40;4.00;;;;;;;;;;525781;28;1497;-73
2022/01/30 11:30:32;;;;;;;20.23;3.72;;;;;;;;;;526067;28;882;-73
2022/01/30 11:30:49;;;;;;;18.23;3.53;;;;;;;;;;525866;28;826;-74
2022/01/30 11:31:05;;;;;;;19.00;4.10;;;;;;;;;;525947;28;726;-73
2022/01/30 11:31:22;;;;;;;18.25;3.90;;;;;;;;;;525373;28;795;-73
2022/01/30 11:31:38;;;;;;;17.73;3.67;;;;;;;;;;527234;28;783;-72
2022/01/30 11:31:54;;;;;;;19.40;3.70;;;;;;;;;;527965;28;822;-73
2022/01/30 11:32:09;;;;;;;21.53;3.90;;;;;;;;;;527758;27;1543;-73
2022/01/30 11:32:27;;;;;;;19.88;4.00;;;;;;;;;;530042;27;763;-72
2022/01/30 11:32:43;;;;;;;18.70;3.85;;;;;;;;;;526996;28;1704;-72
2022/01/30 11:32:59;;;;;;;19.33;3.80;;;;;;;;;;527457;28;850;-72
2022/01/30 11:33:14;;;;;;;22.95;3.70;;;;;;;;;;525066;28;1296;-72
2022/01/30 11:33:31;;;;;;;24.63;4.40;;;;;;;;;;524556;28;1427;-72
2022/01/30 11:33:48;;;;;;;20.27;4.47;;;;;;;;;;525231;28;1446;-72
2022/01/30 11:34:04;;;;;;;20.88;4.07;;;;;;;;;;525544;28;2994;-73
2022/01/30 11:34:23;;;;;;;22.02;3.78;;;;;;;;;;525492;28;911;-73
2022/01/30 11:34:40;;;;;;;19.88;3.30;;;;;;;;;;525324;28;1055;-72
2022/01/30 11:34:56;;;;;;;19.33;3.40;;;;;;;;;;528958;27;1213;-72
2022/01/30 11:35:12;;;;;;;20.98;3.80;;;;;;;;;;528463;27;1113;-72
2022/01/30 11:35:28;;;;;;;20.80;3.80;;;;;;;;;;528852;27;1177;-72
2022/01/30 11:35:43;;;;;;;18.02;3.88;;;;;;;;;;529988;27;1147;-72
2022/01/30 11:35:59;;;;;;;19.60;4.17;;;;;;;;;;525874;28;1629;-72
2022/01/30 11:36:15;;;;;;;24.00;4.35;;;;;;;;;;525369;28;1146;-72
2022/01/30 11:36:32;;;;;;;20.05;3.90;;;;;;;;;;524519;28;1142;-72
2022/01/30 11:36:48;;;;;;;18.40;3.72;;;;;;;;;;525786;28;1050;-72
2022/01/30 11:37:05;;;;;;;21.35;4.15;;;;;;;;;;527550;28;1201;-73
2022/01/30 11:37:27;;;;;;;19.85;4.15;;;;;;;;;;526185;28;1596;-72
2022/01/30 11:37:43;;;;;;;17.63;3.72;;;;;;;;;;525238;28;1478;-72
2022/01/30 11:37:58;;;;;;;19.02;3.53;;;;;;;;;;527337;28;685;-72
2022/01/30 11:38:14;;;;;;;19.73;3.80;;;;;;;;;;527832;28;780;-72
2022/01/30 11:38:30;;;;;;;22.55;4.38;;;;;;;;;;528854;27;1141;-72
2022/01/30 11:38:45;;;;;;;24.15;4.47;;;;;;;;;;527412;28;1321;-72
2022/01/30 11:39:00;;;;;;;21.70;4.27;;;;;;;;;;525849;28;759;-72
2022/01/30 11:39:20;;;;;;;24.05;4.05;;;;;;;;;;527443;28;1323;-73
2022/01/30 11:39:37;;;;;;;22.83;3.92;;;;;;;;;;526186;28;1245;-73
2022/01/30 11:39:52;;;;;;;18.20;3.80;;;;;;;;;;526615;28;1054;-73
2022/01/30 11:40:16;;;;;;;16.40;3.50;;;;;;;;;;527093;28;1240;-72
2022/01/30 11:40:31;;;;;;;18.63;3.72;;;;;;;;;;526511;28;1173;-73
2022/01/30 11:41:12;;;;;;;20.10;3.83;;;;;;;;;;529584;27;1062;-72
2022/01/30 11:41:31;;;;;;;19.77;3.75;;;;;;;;;;526236;28;1266;-72
2022/01/30 11:42:08;;;;;;;19.83;3.70;;;;;;;;;;527731;28;850;-73
2022/01/30 11:42:36;;;;;;;20.80;4.13;;;;;;;;;;524550;28;1309;-73
2022/01/30 11:42:53;;;;;;;21.42;3.80;;;;;;;;;;525548;28;1092;-74
2022/01/30 11:43:08;;;;;;;16.85;3.70;;;;;;;;;;525792;28;795;-74
2022/01/30 11:43:24;;;;;;;17.25;3.70;;;;;;;;;;527284;28;1064;-73
2022/01/30 11:43:39;;;;;;;18.27;3.50;;;;;;;;;;525240;28;1292;-73
2022/01/30 11:44:19;;;;;;;19.83;3.70;;;;;;;;;;525792;28;1216;-74
2022/01/30 11:44:35;;;;;;;21.60;3.80;;;;;;;;;;523263;28;954;-74
2022/01/30 11:45:00;;;;;;;21.27;4.15;;;;;;;;;;524829;28;882;-74
2022/01/30 11:45:24;;;;;;;20.30;4.03;;;;;;;;;;526804;28;1669;-74
2022/01/30 11:45:39;;;;;;;18.90;3.70;;;;;;;;;;528181;27;1450;-73
2022/01/30 11:46:15;;;;;;;19.40;4.03;;;;;;;;;;528130;28;1279;-73
2022/01/30 11:46:30;;;;;;;17.60;3.75;;;;;;;;;;527927;28;764;-73
2022/01/30 11:46:51;;;;;;;16.53;3.50;;;;;;;;;;527001;28;1912;-73
2022/01/30 11:47:08;;;;;;;16.25;3.40;;;;;;;;;;526611;28;846;-74
2022/01/30 11:47:24;;;;;;;17.52;3.80;;;;;;;;;;527044;28;1138;-73
2022/01/30 11:47:45;;;;;;;19.88;3.90;;;;;;;;;;528123;28;775;-73
2022/01/30 11:48:11;;;;;;;26.13;4.20;;;;;;;;;;527440;28;1736;-73
2022/01/30 11:48:26;;;;;;;20.38;3.85;;;;;;;;;;528096;28;1433;-73
2022/01/30 11:48:42;;;;;;;21.87;4.07;;;;;;;;;;525802;28;1207;-73
2022/01/30 11:49:14;;;;;;;21.42;4.20;;;;;;;;;;525818;28;819;-73
2022/01/30 11:49:50;;;;;;;16.35;3.35;;;;;;;;;;523866;28;862;-73
2022/01/30 11:50:06;;;;;;;21.27;4.00;;;;;;;;;;522434;28;1459;-74
2022/01/30 11:50:29;;;;;;;18.48;3.67;;;;;;;;;;524887;28;1421;-74
2022/01/30 11:50:44;;;;;;;20.92;3.97;;;;;;;;;;524955;28;1221;-73
2022/01/30 11:51:03;;;;;;;22.50;3.70;;;;;;;;;;524577;28;1167;-73
2022/01/30 11:51:18;;;;;;;18.38;3.70;;;;;;;;;;526038;28;877;-73
2022/01/30 11:51:50;;;;;;;17.77;3.70;;;;;;;;;;523271;28;1392;-74
2022/01/30 11:52:09;;;;;;;19.63;3.83;;;;;;;;;;525732;28;902;-74
2022/01/30 11:52:50;;;;;;;21.23;3.72;;;;;;;;;;528134;28;1028;-73
2022/01/30 11:53:07;;;;;;;18.25;3.50;;;;;;;;;;525523;28;1826;-73
2022/01/30 11:53:27;;;;;;;16.98;3.78;;;;;;;;;;526210;28;1194;-73
2022/01/30 11:53:42;;;;;;;21.25;4.13;;;;;;;;;;525779;28;862;-73
2022/01/30 11:53:57;;;;;;;22.03;3.83;;;;;;;;;;523898;28;1221;-73
2022/01/30 11:54:41;;;;;;;19.23;3.70;;;;;;;;;;523581;28;1210;-73
2022/01/30 11:54:57;;;;;;;18.00;3.67;;;;;;;;;;522857;28;787;-73
2022/01/30 11:55:37;;;;;;;17.92;3.53;;;;;;;;;;524219;28;783;-73
2022/01/30 11:56:00;;;;;;;23.25;4.13;;;;;;;;;;523538;28;1087;-73
2022/01/30 11:56:30;;;;;;;21.17;3.80;;;;;;;;;;526844;28;1224;-73
2022/01/30 11:56:46;;;;;;;16.10;3.70;;;;;;;;;;525933;28;733;-74
2022/01/30 11:57:03;;;;;;;17.33;3.80;;;;;;;;;;525707;28;1175;-74
2022/01/30 11:57:18;;;;;;;17.70;3.70;;;;;;;;;;525770;28;767;-73
2022/01/30 11:57:33;;;;;;;18.50;3.70;;;;;;;;;;529529;27;1164;-74
2022/01/30 11:57:48;;;;;;;20.20;3.70;;;;;;;;;;528903;27;1494;-73
2022/01/30 11:58:04;;;;;;;18.77;3.60;;;;;;;;;;526070;28;1198;-74
2022/01/30 11:58:45;;;;;;;18.83;3.77;;;;;;;;;;526116;28;783;-74
2022/01/30 11:59:06;;;;;;;23.40;4.22;;;;;;;;;;523880;28;1004;-73
2022/01/30 11:59:40;;;;;;;23.67;4.07;;;;;;;;;;524341;28;1467;-74
2022/01/30 11:59:57;;;;;;;18.55;4.00;;;;;;;;;;526334;28;975;-73
2022/01/30 12:00:33;;;;;;;19.10;3.95;;;;;;;;;;528121;28;1001;-73
2022/01/30 12:00:50;;;;;;;21.02;4.32;;;;;;;;;;528152;28;886;-74
2022/01/30 12:01:24;;;;;;;21.05;4.35;;;;;;;;;;528199;28;791;-74
2022/01/30 12:01:39;;;;;;;20.85;4.00;;;;;;;;;;527794;28;954;-73
2022/01/30 12:02:20;;;;;;;19.05;3.90;;;;;;;;;;527433;28;946;-73
2022/01/30 12:02:36;;;;;;;18.35;3.60;;;;;;;;;;528086;28;1013;-74
2022/01/30 12:03:22;;;;;;;18.23;3.80;;;;;;;;;;528075;28;966;-74
2022/01/30 12:03:37;;;;;;;18.30;3.80;;;;;;;;;;528037;28;881;-75
2022/01/30 12:03:59;;;;;;;19.03;3.90;;;;;;;;;;529831;27;874;-73
2022/01/30 12:04:15;;;;;;;20.40;3.80;;;;;;;;;;529998;27;727;-73
2022/01/30 12:05:01;;;;;;;18.98;3.70;;;;;;;;;;529946;27;783;-74
2022/01/30 12:05:34;;;;;;;19.10;4.03;;;;;;;;;;527624;28;1321;-73
2022/01/30 12:05:49;;;;;;;15.88;3.33;;;;;;;;;;527643;28;1102;-73
2022/01/30 12:06:19;;;;;;;16.57;3.60;;;;;;;;;;527832;28;730;-74